Terminal Aerodrome Forecast
Issued by NWS

Home | Current Version | Previous Version | Text Only | Print | Product List | Glossary On
Versions: 1 2 3 4 5 6 7 8 9 10 11 12
675
FTUS43 KOAX 230520
TAFBFF
TAF
KBFF 230520Z 2306/2406 15010KT P6SM FEW250
     FM231600 19015G23KT P6SM BKN250
     FM240000 16010KT P6SM BKN200=

USA.gov is the U.S. government's official web portal to all federal, state and local government web resources and services.